»·PEaware :: ASA306 KSFO-KPSP

ASA306 :: KSFO-KPSP

FLIGHT INFORMATION

Flight Status: Arrived
Operator:
Alaska Airlines
More flights by this operator :: More flights under this callsign
Pilot: Vlad D. (11271)
Aircraft: MCDONNELL-DOUGLAS MD-80
(MD80)
More flights by this aircraft type
Origin: KSFO San Francisco Intl
United States
Destination: KPSP Palm Springs Intl
United States
More flights between these airports :: More routes between these airports
Route: SSTIK3 LOSHN PMD V137 PSP
File this flight plan on PilotEdge
Remarks:
Altitude:
(Current/Filed)
35,000ft
Speed:
(Current/Filed)
450kts
Departed: 29-May-16 04:37 PM
Arrived: 29-May-16 05:44 PM
Distance/Time
Traveled:
365nm/1:07
Distance/Time
To Go:
Arrived

Flight Plot

Page will automatically refresh every two minutes.


Map Options




Map Legend


Flown Route
Filed Route
Departure Airport
Arrival Airport
Navaid (VOR, NDB)
Fix

Horizontal Profiles

Position Reports

Time Latitude Longitude Heading Altitude Ground
Speed
29-May-16 15:45 37.613802 -122.389595 115 19ft 0kts
29-May-16 15:46 37.613802 -122.389595 115 19ft 0kts
29-May-16 15:47 37.613802 -122.389595 115 19ft 0kts
29-May-16 15:48 37.613802 -122.389595 115 19ft 0kts
29-May-16 15:49 37.613802 -122.389595 115 19ft 0kts
29-May-16 15:50 37.613802 -122.389595 115 19ft 0kts
29-May-16 15:51 37.613802 -122.389595 115 19ft 0kts
29-May-16 15:52 37.613802 -122.389595 115 19ft 0kts
29-May-16 15:53 37.613802 -122.389595 115 19ft 0kts
29-May-16 15:54 37.613802 -122.389595 115 19ft 0kts
29-May-16 15:55 37.613802 -122.389595 115 19ft 0kts
29-May-16 15:56 37.613802 -122.389595 115 19ft 0kts
29-May-16 15:57 37.613802 -122.389595 115 19ft 0kts
29-May-16 15:58 37.613802 -122.389595 115 19ft 0kts
29-May-16 15:59 37.613802 -122.389595 115 19ft 0kts
29-May-16 16:00 37.613802 -122.389595 115 19ft 0kts
29-May-16 16:01 37.613802 -122.389595 115 19ft 0kts
29-May-16 16:02 37.613802 -122.389595 115 19ft 0kts
29-May-16 16:03 37.613802 -122.389595 115 19ft 0kts
29-May-16 16:04 37.613802 -122.389595 115 19ft 0kts
29-May-16 16:05 37.613802 -122.389595 115 19ft 0kts
29-May-16 16:06 37.613802 -122.389595 115 19ft 0kts
29-May-16 16:07 37.613802 -122.389595 115 19ft 0kts
29-May-16 16:08 37.613802 -122.389595 115 19ft 0kts
29-May-16 16:09 37.613802 -122.389595 115 19ft 0kts
29-May-16 16:10 37.613802 -122.389595 115 19ft 0kts
29-May-16 16:11 37.613802 -122.389595 115 19ft 0kts
29-May-16 16:12 37.613806 -122.389607 115 19ft 0kts
29-May-16 16:13 37.613870 -122.389813 104 19ft 0kts
29-May-16 16:14 37.613890 -122.390003 91 19ft 0kts
29-May-16 16:15 37.613891 -122.390027 87 19ft 0kts
29-May-16 16:16 37.613654 -122.390510 60 19ft 0kts
29-May-16 16:17 37.613627 -122.390876 160 19ft 0kts
29-May-16 16:18 37.613627 -122.390876 160 19ft 0kts
29-May-16 16:19 37.613627 -122.390876 160 19ft 0kts
29-May-16 16:20 37.613627 -122.390876 160 19ft 0kts
29-May-16 16:21 37.613627 -122.390876 160 19ft 0kts
29-May-16 16:22 37.613555 -122.390843 162 19ft 1kts
29-May-16 16:23 37.612604 -122.391371 210 19ft 7kts
29-May-16 16:24 37.610609 -122.390782 130 19ft 6kts
29-May-16 16:25 37.610545 -122.388846 32 19ft 7kts
29-May-16 16:26 37.611029 -122.387863 103 19ft 2kts
29-May-16 16:27 37.609985 -122.385249 117 19ft 8kts
29-May-16 16:28 37.609610 -122.384422 122 19ft 2kts
29-May-16 16:29 37.609084 -122.383850 182 19ft 6kts
29-May-16 16:30 37.608646 -122.383844 162 19ft 0kts
29-May-16 16:31 37.608646 -122.383844 162 19ft 0kts
29-May-16 16:32 37.608646 -122.383844 162 19ft 0kts
29-May-16 16:33 37.608646 -122.383844 162 19ft 0kts
29-May-16 16:34 37.608499 -122.382554 32 19ft 5kts
29-May-16 16:35 37.634080 -122.366934 17 730ft 174kts
29-May-16 16:36 37.652362 -122.402422 223 2865ft 234kts
29-May-16 16:37 37.580680 -122.424437 202 4825ft 274kts
29-May-16 16:38 37.511136 -122.461135 192 6590ft 277kts
29-May-16 16:39 37.449170 -122.408884 131 8495ft 283kts
29-May-16 16:40 37.398182 -122.331575 129 10305ft 294kts
29-May-16 16:41 37.340416 -122.242186 129 12187ft 348kts
29-May-16 16:42 37.278424 -122.146405 129 13992ft 360kts
29-May-16 16:43 37.214236 -122.047487 128 15804ft 370kts
29-May-16 16:44 37.148520 -121.946517 128 17613ft 378kts
29-May-16 16:45 37.081396 -121.843699 128 19043ft 387kts
29-May-16 16:46 37.013406 -121.739880 128 19091ft 385kts
29-May-16 16:47 36.945531 -121.636558 128 19587ft 386kts
29-May-16 16:48 36.876066 -121.531161 128 21098ft 399kts
29-May-16 16:49 36.807869 -121.428005 128 22529ft 410kts
29-May-16 16:50 36.734363 -121.316872 127 24348ft 422kts
29-May-16 16:51 36.658561 -121.202612 127 26350ft 434kts
29-May-16 16:52 36.580815 -121.086130 127 28347ft 441kts
29-May-16 16:53 36.502188 -120.968785 126 30337ft 441kts
29-May-16 16:54 36.423862 -120.852588 127 32305ft 436kts
29-May-16 16:55 36.347867 -120.738943 125 34260ft 422kts
29-May-16 16:56 36.272124 -120.626027 125 34984ft 438kts
29-May-16 16:57 36.191681 -120.506636 125 34973ft 451kts
29-May-16 16:58 36.111283 -120.387681 125 34976ft 455kts
29-May-16 16:59 36.030211 -120.267579 126 34950ft 458kts
29-May-16 17:00 35.948274 -120.147152 126 34949ft 457kts
29-May-16 17:01 35.866704 -120.027746 126 34941ft 458kts
29-May-16 17:02 35.788349 -119.903499 123 34942ft 462kts
29-May-16 17:03 35.710412 -119.776476 124 34940ft 472kts
29-May-16 17:04 35.630440 -119.646667 124 34935ft 476kts
29-May-16 17:05 35.551471 -119.518917 124 34936ft 476kts
29-May-16 17:06 35.484651 -119.411177 124 34937ft 476kts
29-May-16 17:07 35.391607 -119.261100 125 34936ft 476kts
29-May-16 17:08 35.324878 -119.154261 124 34936ft 470kts
29-May-16 17:09 35.245798 -119.028099 124 34937ft 465kts
29-May-16 17:10 35.166990 -118.902831 124 34950ft 465kts
29-May-16 17:11 35.088265 -118.778147 124 35047ft 463kts
29-May-16 17:12 35.009853 -118.654397 124 35112ft 463kts
29-May-16 17:13 34.931010 -118.530405 124 35108ft 463kts
29-May-16 17:14 34.853057 -118.408233 124 35030ft 464kts
29-May-16 17:15 34.774537 -118.285085 125 34981ft 465kts
29-May-16 17:16 34.695016 -118.161205 125 34938ft 466kts
29-May-16 17:17 34.619561 -118.036540 116 33509ft 449kts
29-May-16 17:18 34.560160 -117.907572 115 31986ft 428kts
29-May-16 17:19 34.502891 -117.782473 116 30483ft 425kts
29-May-16 17:20 34.445405 -117.657695 116 29030ft 422kts
29-May-16 17:21 34.388535 -117.534530 116 27590ft 413kts
29-May-16 17:22 34.333448 -117.415689 116 26097ft 398kts
29-May-16 17:23 34.280345 -117.301063 116 24606ft 385kts
29-May-16 17:24 34.228765 -117.190124 116 23107ft 372kts
29-May-16 17:25 34.178421 -117.082494 116 21609ft 362kts
29-May-16 17:26 34.129632 -116.978394 116 19852ft 351kts
29-May-16 17:27 34.082491 -116.878091 116 18041ft 338kts
29-May-16 17:28 34.036598 -116.780706 116 16243ft 329kts
29-May-16 17:29 33.991967 -116.686586 116 14452ft 320kts
29-May-16 17:30 33.948493 -116.594956 116 12656ft 310kts
29-May-16 17:31 33.906181 -116.506064 116 10858ft 302kts
29-May-16 17:32 33.864932 -116.419815 116 9107ft 294kts
29-May-16 17:33 33.821465 -116.339690 130 7588ft 281kts
29-May-16 17:34 33.761721 -116.284055 140 6423ft 246kts
29-May-16 17:35 33.707588 -116.245681 179 5125ft 220kts
29-May-16 17:36 33.670520 -116.292397 244 3969ft 202kts
29-May-16 17:37 33.668147 -116.357520 286 3908ft 205kts
29-May-16 17:38 33.700334 -116.409567 320 3235ft 191kts
29-May-16 17:39 33.739149 -116.446032 328 2162ft 150kts
29-May-16 17:40 33.773924 -116.462783 339 1602ft 133kts
29-May-16 17:41 33.803928 -116.485146 326 873ft 118kts
29-May-16 17:42 33.828022 -116.506208 326 483ft 26kts
29-May-16 17:43 33.828739 -116.507729 262 483ft 0kts
29-May-16 17:44 33.828739 -116.507729 262 483ft 0kts
29-May-16 17:45 33.827118 -116.507437 143 483ft 12kts
29-May-16 17:46 33.823909 -116.504581 143 483ft 11kts
29-May-16 17:47 33.822499 -116.505169 246 483ft 4kts
29-May-16 17:48 33.822725 -116.505852 294 483ft 0kts
29-May-16 17:49 33.822725 -116.505852 294 483ft 0kts

Navigation Log

Ident Type
Flight plan parsing failed, navigation log unavailable